sensor_id;sensor_type;location;lat;lon;timestamp;P1;durP1;ratioP1;P2;durP2;ratioP2
70106;SDS011;57473;37.508;15.080;2023-05-23T00:02:19;24.55;;;13.73;;
70106;SDS011;57473;37.508;15.080;2023-05-23T00:04:46;23.95;;;13.52;;
70106;SDS011;57473;37.508;15.080;2023-05-23T00:07:14;30.90;;;14.05;;
70106;SDS011;57473;37.508;15.080;2023-05-23T00:09:42;30.65;;;15.45;;
70106;SDS011;57473;37.508;15.080;2023-05-23T00:12:09;25.73;;;14.23;;
70106;SDS011;57473;37.508;15.080;2023-05-23T00:14:37;34.40;;;14.60;;
70106;SDS011;57473;37.508;15.080;2023-05-23T00:17:06;28.80;;;15.88;;
70106;SDS011;57473;37.508;15.080;2023-05-23T00:19:36;26.67;;;14.93;;
70106;SDS011;57473;37.508;15.080;2023-05-23T00:22:03;31.00;;;16.13;;
70106;SDS011;57473;37.508;15.080;2023-05-23T00:24:31;29.58;;;15.63;;
70106;SDS011;57473;37.508;15.080;2023-05-23T00:26:58;30.90;;;15.23;;
70106;SDS011;57473;37.508;15.080;2023-05-23T00:29:27;28.38;;;15.98;;
70106;SDS011;57473;37.508;15.080;2023-05-23T00:31:55;33.03;;;16.00;;
70106;SDS011;57473;37.508;15.080;2023-05-23T00:34:23;30.98;;;16.05;;
70106;SDS011;57473;37.508;15.080;2023-05-23T00:36:50;36.75;;;17.42;;
70106;SDS011;57473;37.508;15.080;2023-05-23T00:39:19;36.25;;;17.40;;
70106;SDS011;57473;37.508;15.080;2023-05-23T00:41:48;34.45;;;16.65;;
70106;SDS011;57473;37.508;15.080;2023-05-23T00:44:19;27.60;;;15.70;;
70106;SDS011;57473;37.508;15.080;2023-05-23T00:46:52;33.15;;;17.23;;
70106;SDS011;57473;37.508;15.080;2023-05-23T00:49:22;30.65;;;16.10;;
70106;SDS011;57473;37.508;15.080;2023-05-23T00:51:53;32.75;;;15.13;;
70106;SDS011;57473;37.508;15.080;2023-05-23T00:54:23;27.80;;;14.27;;
70106;SDS011;57473;37.508;15.080;2023-05-23T00:56:53;26.60;;;14.25;;
70106;SDS011;57473;37.508;15.080;2023-05-23T00:59:21;22.33;;;12.48;;
70106;SDS011;57473;37.508;15.080;2023-05-23T01:01:50;22.85;;;11.77;;
70106;SDS011;57473;37.508;15.080;2023-05-23T01:04:20;20.58;;;11.40;;
70106;SDS011;57473;37.508;15.080;2023-05-23T01:06:55;18.67;;;10.10;;
70106;SDS011;57473;37.508;15.080;2023-05-23T01:09:24;19.05;;;10.85;;
70106;SDS011;57473;37.508;15.080;2023-05-23T01:14:23;18.65;;;11.43;;
70106;SDS011;57473;37.508;15.080;2023-05-23T01:16:57;21.98;;;11.82;;
70106;SDS011;57473;37.508;15.080;2023-05-23T01:27:59;17.65;;;10.02;;
70106;SDS011;57473;37.508;15.080;2023-05-23T01:30:30;18.48;;;9.55;;
70106;SDS011;57473;37.508;15.080;2023-05-23T01:33:01;20.10;;;9.55;;
70106;SDS011;57473;37.508;15.080;2023-05-23T01:35:30;15.13;;;9.25;;
70106;SDS011;57473;37.508;15.080;2023-05-23T01:38:00;22.70;;;10.27;;
70106;SDS011;57473;37.508;15.080;2023-05-23T01:40:28;15.73;;;9.35;;
70106;SDS011;57473;37.508;15.080;2023-05-23T01:42:55;18.52;;;8.80;;
70106;SDS011;57473;37.508;15.080;2023-05-23T01:45:24;14.15;;;8.38;;
70106;SDS011;57473;37.508;15.080;2023-05-23T01:47:54;13.82;;;8.25;;
70106;SDS011;57473;37.508;15.080;2023-05-23T01:50:23;11.68;;;7.05;;
70106;SDS011;57473;37.508;15.080;2023-05-23T01:52:52;14.77;;;8.30;;
70106;SDS011;57473;37.508;15.080;2023-05-23T01:55:21;13.70;;;7.47;;
70106;SDS011;57473;37.508;15.080;2023-05-23T01:57:55;14.27;;;7.10;;
70106;SDS011;57473;37.508;15.080;2023-05-23T02:00:23;12.53;;;7.10;;
70106;SDS011;57473;37.508;15.080;2023-05-23T02:02:51;10.05;;;6.80;;
70106;SDS011;57473;37.508;15.080;2023-05-23T02:05:19;11.80;;;6.40;;
70106;SDS011;57473;37.508;15.080;2023-05-23T02:07:46;11.95;;;6.65;;
70106;SDS011;57473;37.508;15.080;2023-05-23T02:10:16;13.85;;;6.95;;
70106;SDS011;57473;37.508;15.080;2023-05-23T02:12:44;12.52;;;6.93;;
70106;SDS011;57473;37.508;15.080;2023-05-23T02:15:11;10.25;;;6.50;;
70106;SDS011;57473;37.508;15.080;2023-05-23T02:17:39;14.25;;;6.72;;
70106;SDS011;57473;37.508;15.080;2023-05-23T02:20:07;14.05;;;7.03;;
70106;SDS011;57473;37.508;15.080;2023-05-23T02:22:35;10.55;;;6.47;;
70106;SDS011;57473;37.508;15.080;2023-05-23T02:25:04;14.32;;;7.18;;
70106;SDS011;57473;37.508;15.080;2023-05-23T02:27:32;16.50;;;6.72;;
70106;SDS011;57473;37.508;15.080;2023-05-23T02:30:00;10.73;;;6.28;;
70106;SDS011;57473;37.508;15.080;2023-05-23T02:32:27;14.40;;;7.07;;
70106;SDS011;57473;37.508;15.080;2023-05-23T02:34:56;10.60;;;6.05;;
70106;SDS011;57473;37.508;15.080;2023-05-23T02:37:23;9.32;;;6.32;;
70106;SDS011;57473;37.508;15.080;2023-05-23T02:39:51;15.75;;;7.03;;
70106;SDS011;57473;37.508;15.080;2023-05-23T02:42:20;13.48;;;6.72;;
70106;SDS011;57473;37.508;15.080;2023-05-23T02:44:49;13.02;;;7.35;;
70106;SDS011;57473;37.508;15.080;2023-05-23T02:47:17;15.50;;;7.70;;
70106;SDS011;57473;37.508;15.080;2023-05-23T02:49:44;12.90;;;7.90;;
70106;SDS011;57473;37.508;15.080;2023-05-23T02:52:14;12.10;;;6.78;;
70106;SDS011;57473;37.508;15.080;2023-05-23T02:54:42;16.55;;;8.13;;
70106;SDS011;57473;37.508;15.080;2023-05-23T02:57:10;12.25;;;7.20;;
70106;SDS011;57473;37.508;15.080;2023-05-23T02:59:39;11.70;;;7.05;;
70106;SDS011;57473;37.508;15.080;2023-05-23T03:02:07;12.68;;;6.30;;
70106;SDS011;57473;37.508;15.080;2023-05-23T03:04:35;13.35;;;7.32;;
70106;SDS011;57473;37.508;15.080;2023-05-23T03:07:03;13.27;;;6.95;;
70106;SDS011;57473;37.508;15.080;2023-05-23T03:09:42;16.20;;;7.40;;
70106;SDS011;57473;37.508;15.080;2023-05-23T03:12:10;14.18;;;7.18;;
70106;SDS011;57473;37.508;15.080;2023-05-23T03:14:37;18.02;;;7.20;;
70106;SDS011;57473;37.508;15.080;2023-05-23T03:17:04;16.90;;;7.97;;
70106;SDS011;57473;37.508;15.080;2023-05-23T03:19:32;12.52;;;7.90;;
70106;SDS011;57473;37.508;15.080;2023-05-23T03:22:02;15.57;;;8.25;;
70106;SDS011;57473;37.508;15.080;2023-05-23T03:24:29;13.48;;;7.05;;
70106;SDS011;57473;37.508;15.080;2023-05-23T03:26:57;12.95;;;7.45;;
70106;SDS011;57473;37.508;15.080;2023-05-23T03:29:25;17.10;;;8.43;;
70106;SDS011;57473;37.508;15.080;2023-05-23T03:31:52;18.42;;;7.78;;
70106;SDS011;57473;37.508;15.080;2023-05-23T03:34:20;11.95;;;7.68;;
70106;SDS011;57473;37.508;15.080;2023-05-23T03:36:49;13.95;;;7.45;;
70106;SDS011;57473;37.508;15.080;2023-05-23T03:39:16;21.95;;;7.65;;
70106;SDS011;57473;37.508;15.080;2023-05-23T03:41:44;13.93;;;7.30;;
70106;SDS011;57473;37.508;15.080;2023-05-23T03:44:11;14.43;;;7.55;;
70106;SDS011;57473;37.508;15.080;2023-05-23T03:46:40;15.18;;;8.15;;
70106;SDS011;57473;37.508;15.080;2023-05-23T03:49:08;17.05;;;7.75;;
70106;SDS011;57473;37.508;15.080;2023-05-23T03:51:35;16.35;;;7.80;;
70106;SDS011;57473;37.508;15.080;2023-05-23T03:54:03;16.27;;;8.80;;
70106;SDS011;57473;37.508;15.080;2023-05-23T03:56:31;12.98;;;7.35;;
70106;SDS011;57473;37.508;15.080;2023-05-23T03:58:58;16.00;;;7.55;;
70106;SDS011;57473;37.508;15.080;2023-05-23T04:01:27;11.18;;;6.40;;
70106;SDS011;57473;37.508;15.080;2023-05-23T04:03:54;15.38;;;6.80;;
70106;SDS011;57473;37.508;15.080;2023-05-23T04:06:25;12.23;;;6.78;;
70106;SDS011;57473;37.508;15.080;2023-05-23T04:08:56;9.05;;;6.47;;
70106;SDS011;57473;37.508;15.080;2023-05-23T04:11:24;12.90;;;7.05;;
70106;SDS011;57473;37.508;15.080;2023-05-23T04:13:51;17.48;;;7.53;;
70106;SDS011;57473;37.508;15.080;2023-05-23T04:16:19;15.63;;;7.43;;
70106;SDS011;57473;37.508;15.080;2023-05-23T04:18:48;12.73;;;7.32;;
70106;SDS011;57473;37.508;15.080;2023-05-23T04:21:17;16.48;;;7.57;;
70106;SDS011;57473;37.508;15.080;2023-05-23T04:24:06;12.55;;;7.05;;
70106;SDS011;57473;37.508;15.080;2023-05-23T04:26:34;16.25;;;8.25;;
70106;SDS011;57473;37.508;15.080;2023-05-23T04:29:03;16.40;;;7.65;;
70106;SDS011;57473;37.508;15.080;2023-05-23T04:31:32;15.70;;;8.30;;
70106;SDS011;57473;37.508;15.080;2023-05-23T04:34:00;16.20;;;7.63;;
70106;SDS011;57473;37.508;15.080;2023-05-23T04:36:30;16.33;;;8.20;;
70106;SDS011;57473;37.508;15.080;2023-05-23T04:38:58;20.15;;;7.70;;
70106;SDS011;57473;37.508;15.080;2023-05-23T04:41:28;15.02;;;7.30;;
70106;SDS011;57473;37.508;15.080;2023-05-23T04:44:17;23.25;;;8.13;;
70106;SDS011;57473;37.508;15.080;2023-05-23T04:47:01;14.82;;;8.23;;
70106;SDS011;57473;37.508;15.080;2023-05-23T04:49:43;18.70;;;7.72;;
70106;SDS011;57473;37.508;15.080;2023-05-23T04:52:11;20.50;;;8.77;;
70106;SDS011;57473;37.508;15.080;2023-05-23T04:54:40;20.70;;;8.55;;
70106;SDS011;57473;37.508;15.080;2023-05-23T04:57:11;21.42;;;9.25;;
70106;SDS011;57473;37.508;15.080;2023-05-23T04:59:39;16.20;;;8.10;;
70106;SDS011;57473;37.508;15.080;2023-05-23T05:02:08;19.40;;;8.07;;
70106;SDS011;57473;37.508;15.080;2023-05-23T05:04:37;17.02;;;8.40;;
70106;SDS011;57473;37.508;15.080;2023-05-23T05:07:04;17.77;;;8.55;;
70106;SDS011;57473;37.508;15.080;2023-05-23T05:09:32;17.77;;;7.97;;
70106;SDS011;57473;37.508;15.080;2023-05-23T05:12:00;17.55;;;9.40;;
70106;SDS011;57473;37.508;15.080;2023-05-23T05:14:28;16.02;;;8.73;;
70106;SDS011;57473;37.508;15.080;2023-05-23T05:16:56;18.38;;;8.70;;
70106;SDS011;57473;37.508;15.080;2023-05-23T05:19:31;17.65;;;8.30;;
70106;SDS011;57473;37.508;15.080;2023-05-23T05:21:59;16.75;;;9.52;;
70106;SDS011;57473;37.508;15.080;2023-05-23T05:24:28;15.95;;;8.90;;
70106;SDS011;57473;37.508;15.080;2023-05-23T05:26:55;22.55;;;10.52;;
70106;SDS011;57473;37.508;15.080;2023-05-23T05:29:23;17.10;;;10.27;;
70106;SDS011;57473;37.508;15.080;2023-05-23T05:31:51;22.13;;;10.32;;
70106;SDS011;57473;37.508;15.080;2023-05-23T05:34:18;19.52;;;10.75;;
70106;SDS011;57473;37.508;15.080;2023-05-23T05:36:46;19.35;;;10.02;;
70106;SDS011;57473;37.508;15.080;2023-05-23T05:39:16;18.08;;;10.43;;
70106;SDS011;57473;37.508;15.080;2023-05-23T05:41:44;24.17;;;10.98;;
70106;SDS011;57473;37.508;15.080;2023-05-23T05:44:12;21.98;;;11.07;;
70106;SDS011;57473;37.508;15.080;2023-05-23T05:46:40;18.17;;;9.98;;
70106;SDS011;57473;37.508;15.080;2023-05-23T05:49:08;27.80;;;9.40;;
70106;SDS011;57473;37.508;15.080;2023-05-23T05:51:38;15.82;;;9.13;;
70106;SDS011;57473;37.508;15.080;2023-05-23T05:54:05;21.23;;;8.88;;
70106;SDS011;57473;37.508;15.080;2023-05-23T05:56:33;20.60;;;9.23;;
70106;SDS011;57473;37.508;15.080;2023-05-23T05:59:00;22.52;;;9.65;;
70106;SDS011;57473;37.508;15.080;2023-05-23T06:01:27;21.23;;;10.18;;
70106;SDS011;57473;37.508;15.080;2023-05-23T06:03:56;24.95;;;8.13;;
70106;SDS011;57473;37.508;15.080;2023-05-23T06:06:24;16.58;;;8.65;;
70106;SDS011;57473;37.508;15.080;2023-05-23T06:08:52;21.05;;;8.38;;
70106;SDS011;57473;37.508;15.080;2023-05-23T06:11:20;18.73;;;8.75;;
70106;SDS011;57473;37.508;15.080;2023-05-23T06:13:47;19.33;;;8.43;;
70106;SDS011;57473;37.508;15.080;2023-05-23T06:16:15;18.20;;;8.48;;
70106;SDS011;57473;37.508;15.080;2023-05-23T06:18:44;14.90;;;7.80;;
70106;SDS011;57473;37.508;15.080;2023-05-23T06:21:11;16.70;;;8.27;;
70106;SDS011;57473;37.508;15.080;2023-05-23T06:23:39;21.90;;;8.68;;
70106;SDS011;57473;37.508;15.080;2023-05-23T06:26:07;27.25;;;9.07;;
70106;SDS011;57473;37.508;15.080;2023-05-23T06:28:37;18.40;;;7.97;;
70106;SDS011;57473;37.508;15.080;2023-05-23T06:31:05;17.27;;;7.25;;
70106;SDS011;57473;37.508;15.080;2023-05-23T06:33:35;21.42;;;8.70;;
70106;SDS011;57473;37.508;15.080;2023-05-23T06:36:03;16.13;;;7.78;;
70106;SDS011;57473;37.508;15.080;2023-05-23T06:38:31;17.00;;;7.93;;
70106;SDS011;57473;37.508;15.080;2023-05-23T06:41:02;18.17;;;8.48;;
70106;SDS011;57473;37.508;15.080;2023-05-23T06:43:35;18.75;;;8.50;;
70106;SDS011;57473;37.508;15.080;2023-05-23T06:46:22;18.67;;;7.38;;
70106;SDS011;57473;37.508;15.080;2023-05-23T06:48:49;16.55;;;8.30;;
70106;SDS011;57473;37.508;15.080;2023-05-23T06:51:28;20.27;;;7.82;;
70106;SDS011;57473;37.508;15.080;2023-05-23T06:53:58;18.00;;;7.72;;
70106;SDS011;57473;37.508;15.080;2023-05-23T06:56:26;15.38;;;8.15;;
70106;SDS011;57473;37.508;15.080;2023-05-23T06:58:56;16.00;;;8.32;;
70106;SDS011;57473;37.508;15.080;2023-05-23T07:01:25;19.60;;;9.27;;
70106;SDS011;57473;37.508;15.080;2023-05-23T07:03:52;17.80;;;8.68;;
70106;SDS011;57473;37.508;15.080;2023-05-23T07:06:21;17.25;;;9.40;;
70106;SDS011;57473;37.508;15.080;2023-05-23T07:08:49;17.75;;;8.40;;
70106;SDS011;57473;37.508;15.080;2023-05-23T07:11:17;15.18;;;8.25;;
70106;SDS011;57473;37.508;15.080;2023-05-23T07:13:52;17.20;;;7.90;;
70106;SDS011;57473;37.508;15.080;2023-05-23T07:16:32;15.48;;;8.15;;
70106;SDS011;57473;37.508;15.080;2023-05-23T07:19:02;13.80;;;7.03;;
70106;SDS011;57473;37.508;15.080;2023-05-23T07:21:34;16.88;;;7.97;;
70106;SDS011;57473;37.508;15.080;2023-05-23T07:24:04;19.10;;;8.23;;
70106;SDS011;57473;37.508;15.080;2023-05-23T07:26:31;25.05;;;8.57;;
70106;SDS011;57473;37.508;15.080;2023-05-23T07:29:00;16.95;;;7.60;;
70106;SDS011;57473;37.508;15.080;2023-05-23T07:31:27;15.52;;;7.05;;
70106;SDS011;57473;37.508;15.080;2023-05-23T07:33:57;20.55;;;7.75;;
70106;SDS011;57473;37.508;15.080;2023-05-23T07:36:35;18.00;;;8.13;;
70106;SDS011;57473;37.508;15.080;2023-05-23T07:39:06;17.35;;;7.18;;
70106;SDS011;57473;37.508;15.080;2023-05-23T07:41:34;26.77;;;9.35;;
70106;SDS011;57473;37.508;15.080;2023-05-23T07:44:01;17.05;;;7.88;;
70106;SDS011;57473;37.508;15.080;2023-05-23T07:46:29;13.55;;;7.57;;
70106;SDS011;57473;37.508;15.080;2023-05-23T07:48:56;16.50;;;7.05;;
70106;SDS011;57473;37.508;15.080;2023-05-23T07:51:24;13.30;;;6.93;;
70106;SDS011;57473;37.508;15.080;2023-05-23T07:53:51;14.57;;;7.07;;
70106;SDS011;57473;37.508;15.080;2023-05-23T07:56:21;14.27;;;7.20;;
70106;SDS011;57473;37.508;15.080;2023-05-23T07:58:48;17.08;;;7.90;;
70106;SDS011;57473;37.508;15.080;2023-05-23T08:01:16;14.73;;;7.15;;
70106;SDS011;57473;37.508;15.080;2023-05-23T08:04:04;12.40;;;6.63;;
70106;SDS011;57473;37.508;15.080;2023-05-23T08:06:52;13.50;;;6.78;;
70106;SDS011;57473;37.508;15.080;2023-05-23T08:09:27;16.67;;;7.40;;
70106;SDS011;57473;37.508;15.080;2023-05-23T08:11:56;17.45;;;7.10;;
70106;SDS011;57473;37.508;15.080;2023-05-23T08:14:24;15.63;;;6.53;;
70106;SDS011;57473;37.508;15.080;2023-05-23T08:17:18;13.38;;;7.18;;
70106;SDS011;57473;37.508;15.080;2023-05-23T08:19:46;15.13;;;6.65;;
70106;SDS011;57473;37.508;15.080;2023-05-23T08:22:14;13.43;;;7.45;;
70106;SDS011;57473;37.508;15.080;2023-05-23T08:24:41;21.30;;;11.05;;
70106;SDS011;57473;37.508;15.080;2023-05-23T08:27:09;12.07;;;6.82;;
70106;SDS011;57473;37.508;15.080;2023-05-23T08:29:37;17.52;;;9.82;;
70106;SDS011;57473;37.508;15.080;2023-05-23T08:32:05;20.83;;;11.73;;
70106;SDS011;57473;37.508;15.080;2023-05-23T08:34:33;15.32;;;8.43;;
70106;SDS011;57473;37.508;15.080;2023-05-23T08:37:01;20.88;;;11.55;;
70106;SDS011;57473;37.508;15.080;2023-05-23T08:39:29;14.70;;;9.02;;
70106;SDS011;57473;37.508;15.080;2023-05-23T08:42:15;15.63;;;7.85;;
70106;SDS011;57473;37.508;15.080;2023-05-23T08:44:43;16.23;;;9.93;;
70106;SDS011;57473;37.508;15.080;2023-05-23T08:47:10;18.70;;;6.55;;
70106;SDS011;57473;37.508;15.080;2023-05-23T08:50:03;21.42;;;10.77;;
70106;SDS011;57473;37.508;15.080;2023-05-23T08:52:34;17.40;;;7.80;;
70106;SDS011;57473;37.508;15.080;2023-05-23T08:55:06;34.45;;;10.63;;
70106;SDS011;57473;37.508;15.080;2023-05-23T08:57:35;18.45;;;10.55;;
70106;SDS011;57473;37.508;15.080;2023-05-23T09:00:20;11.88;;;6.13;;
70106;SDS011;57473;37.508;15.080;2023-05-23T09:02:49;12.73;;;6.13;;
70106;SDS011;57473;37.508;15.080;2023-05-23T09:05:37;13.38;;;6.20;;
70106;SDS011;57473;37.508;15.080;2023-05-23T09:08:05;9.32;;;5.88;;
70106;SDS011;57473;37.508;15.080;2023-05-23T09:10:33;19.88;;;7.03;;
70106;SDS011;57473;37.508;15.080;2023-05-23T09:13:03;12.15;;;6.60;;
70106;SDS011;57473;37.508;15.080;2023-05-23T09:15:31;14.35;;;6.97;;
70106;SDS011;57473;37.508;15.080;2023-05-23T09:17:59;10.25;;;5.82;;
70106;SDS011;57473;37.508;15.080;2023-05-23T09:20:32;17.52;;;7.72;;
70106;SDS011;57473;37.508;15.080;2023-05-23T09:23:06;10.68;;;5.22;;
70106;SDS011;57473;37.508;15.080;2023-05-23T09:25:36;15.75;;;6.50;;
70106;SDS011;57473;37.508;15.080;2023-05-23T09:28:13;10.80;;;5.60;;
70106;SDS011;57473;37.508;15.080;2023-05-23T09:30:40;16.48;;;6.38;;
70106;SDS011;57473;37.508;15.080;2023-05-23T09:33:08;15.75;;;6.00;;
70106;SDS011;57473;37.508;15.080;2023-05-23T09:35:35;10.45;;;4.82;;
70106;SDS011;57473;37.508;15.080;2023-05-23T09:38:10;14.88;;;5.93;;
70106;SDS011;57473;37.508;15.080;2023-05-23T09:40:43;12.63;;;5.53;;
70106;SDS011;57473;37.508;15.080;2023-05-23T09:43:11;11.27;;;5.00;;
70106;SDS011;57473;37.508;15.080;2023-05-23T09:45:42;9.98;;;4.90;;
70106;SDS011;57473;37.508;15.080;2023-05-23T09:48:10;9.23;;;5.18;;
70106;SDS011;57473;37.508;15.080;2023-05-23T09:50:40;13.60;;;5.88;;
70106;SDS011;57473;37.508;15.080;2023-05-23T09:53:08;11.55;;;5.88;;
70106;SDS011;57473;37.508;15.080;2023-05-23T09:55:35;12.82;;;5.50;;
70106;SDS011;57473;37.508;15.080;2023-05-23T09:58:02;14.73;;;6.68;;
70106;SDS011;57473;37.508;15.080;2023-05-23T10:00:31;11.48;;;4.95;;
70106;SDS011;57473;37.508;15.080;2023-05-23T10:03:11;10.55;;;4.68;;
70106;SDS011;57473;37.508;15.080;2023-05-23T10:05:44;10.00;;;4.95;;
70106;SDS011;57473;37.508;15.080;2023-05-23T10:08:17;6.60;;;3.80;;
70106;SDS011;57473;37.508;15.080;2023-05-23T10:13:29;11.65;;;4.68;;
70106;SDS011;57473;37.508;15.080;2023-05-23T10:19:24;8.15;;;3.78;;
70106;SDS011;57473;37.508;15.080;2023-05-23T10:22:03;9.60;;;4.32;;
70106;SDS011;57473;37.508;15.080;2023-05-23T10:24:33;16.45;;;5.55;;
70106;SDS011;57473;37.508;15.080;2023-05-23T10:27:01;12.48;;;5.40;;
70106;SDS011;57473;37.508;15.080;2023-05-23T10:29:29;16.45;;;5.45;;
70106;SDS011;57473;37.508;15.080;2023-05-23T10:31:59;11.85;;;3.95;;
70106;SDS011;57473;37.508;15.080;2023-05-23T10:37:03;6.53;;;3.55;;
70106;SDS011;57473;37.508;15.080;2023-05-23T10:42:09;7.93;;;4.07;;
70106;SDS011;57473;37.508;15.080;2023-05-23T10:44:47;9.57;;;3.65;;
70106;SDS011;57473;37.508;15.080;2023-05-23T10:47:24;9.70;;;3.60;;
70106;SDS011;57473;37.508;15.080;2023-05-23T10:49:55;11.63;;;4.53;;
70106;SDS011;57473;37.508;15.080;2023-05-23T10:52:23;11.00;;;3.70;;
70106;SDS011;57473;37.508;15.080;2023-05-23T10:54:53;6.47;;;3.33;;
70106;SDS011;57473;37.508;15.080;2023-05-23T10:57:24;12.23;;;6.13;;
70106;SDS011;57473;37.508;15.080;2023-05-23T10:59:55;9.10;;;3.88;;
70106;SDS011;57473;37.508;15.080;2023-05-23T11:02:26;8.82;;;4.30;;
70106;SDS011;57473;37.508;15.080;2023-05-23T11:07:45;13.17;;;4.30;;
70106;SDS011;57473;37.508;15.080;2023-05-23T11:10:12;8.65;;;3.97;;
70106;SDS011;57473;37.508;15.080;2023-05-23T11:12:41;7.40;;;3.78;;
70106;SDS011;57473;37.508;15.080;2023-05-23T11:17:52;10.23;;;3.92;;
70106;SDS011;57473;37.508;15.080;2023-05-23T11:20:25;14.45;;;3.92;;
70106;SDS011;57473;37.508;15.080;2023-05-23T11:22:57;8.63;;;4.00;;
70106;SDS011;57473;37.508;15.080;2023-05-23T11:28:22;10.70;;;4.63;;
70106;SDS011;57473;37.508;15.080;2023-05-23T11:30:50;9.77;;;4.18;;
70106;SDS011;57473;37.508;15.080;2023-05-23T11:33:18;11.02;;;3.70;;
70106;SDS011;57473;37.508;15.080;2023-05-23T11:35:47;11.02;;;3.38;;
70106;SDS011;57473;37.508;15.080;2023-05-23T11:38:16;5.45;;;3.20;;
70106;SDS011;57473;37.508;15.080;2023-05-23T11:40:45;10.60;;;4.07;;
70106;SDS011;57473;37.508;15.080;2023-05-23T11:43:13;10.32;;;3.70;;
70106;SDS011;57473;37.508;15.080;2023-05-23T11:45:45;11.32;;;3.75;;
70106;SDS011;57473;37.508;15.080;2023-05-23T11:48:13;9.07;;;3.70;;
70106;SDS011;57473;37.508;15.080;2023-05-23T11:50:46;8.40;;;3.55;;
70106;SDS011;57473;37.508;15.080;2023-05-23T11:53:14;10.52;;;3.47;;
70106;SDS011;57473;37.508;15.080;2023-05-23T11:55:53;8.23;;;4.15;;
70106;SDS011;57473;37.508;15.080;2023-05-23T11:58:27;6.80;;;4.25;;
70106;SDS011;57473;37.508;15.080;2023-05-23T12:03:29;6.55;;;3.85;;
70106;SDS011;57473;37.508;15.080;2023-05-23T12:05:57;8.95;;;4.28;;
70106;SDS011;57473;37.508;15.080;2023-05-23T12:08:25;6.88;;;3.40;;
70106;SDS011;57473;37.508;15.080;2023-05-23T12:10:56;14.82;;;4.00;;
70106;SDS011;57473;37.508;15.080;2023-05-23T12:13:25;7.97;;;3.42;;
70106;SDS011;57473;37.508;15.080;2023-05-23T12:15:55;10.30;;;3.58;;
70106;SDS011;57473;37.508;15.080;2023-05-23T12:39:04;10.30;;;4.30;;
70106;SDS011;57473;37.508;15.080;2023-05-23T12:41:32;6.05;;;3.45;;
70106;SDS011;57473;37.508;15.080;2023-05-23T12:44:00;11.02;;;3.63;;
70106;SDS011;57473;37.508;15.080;2023-05-23T12:46:28;5.70;;;3.63;;
70106;SDS011;57473;37.508;15.080;2023-05-23T12:48:56;9.05;;;3.30;;
70106;SDS011;57473;37.508;15.080;2023-05-23T12:51:23;6.97;;;3.65;;
70106;SDS011;57473;37.508;15.080;2023-05-23T12:53:51;9.98;;;5.90;;
70106;SDS011;57473;37.508;15.080;2023-05-23T12:56:20;12.65;;;4.43;;
70106;SDS011;57473;37.508;15.080;2023-05-23T12:58:51;19.63;;;8.40;;
70106;SDS011;57473;37.508;15.080;2023-05-23T13:01:20;9.07;;;5.47;;
70106;SDS011;57473;37.508;15.080;2023-05-23T13:03:47;6.25;;;3.65;;
70106;SDS011;57473;37.508;15.080;2023-05-23T13:06:15;12.88;;;4.60;;
70106;SDS011;57473;37.508;15.080;2023-05-23T13:08:42;11.40;;;4.05;;
70106;SDS011;57473;37.508;15.080;2023-05-23T13:11:10;11.00;;;4.40;;
70106;SDS011;57473;37.508;15.080;2023-05-23T13:13:38;8.60;;;4.00;;
70106;SDS011;57473;37.508;15.080;2023-05-23T13:16:05;8.57;;;3.15;;
70106;SDS011;57473;37.508;15.080;2023-05-23T13:18:33;7.18;;;3.47;;
70106;SDS011;57473;37.508;15.080;2023-05-23T13:21:00;6.18;;;3.30;;
70106;SDS011;57473;37.508;15.080;2023-05-23T13:23:27;7.68;;;3.60;;
70106;SDS011;57473;37.508;15.080;2023-05-23T13:25:56;7.65;;;3.53;;
70106;SDS011;57473;37.508;15.080;2023-05-23T13:28:23;8.02;;;3.72;;
70106;SDS011;57473;37.508;15.080;2023-05-23T13:30:51;7.03;;;4.00;;
70106;SDS011;57473;37.508;15.080;2023-05-23T13:33:18;7.93;;;3.60;;
70106;SDS011;57473;37.508;15.080;2023-05-23T13:35:48;11.43;;;3.97;;
70106;SDS011;57473;37.508;15.080;2023-05-23T13:38:17;6.75;;;3.70;;
70106;SDS011;57473;37.508;15.080;2023-05-23T13:40:44;7.13;;;3.55;;
70106;SDS011;57473;37.508;15.080;2023-05-23T13:43:13;8.05;;;3.17;;
70106;SDS011;57473;37.508;15.080;2023-05-23T13:45:40;11.13;;;3.72;;
70106;SDS011;57473;37.508;15.080;2023-05-23T13:48:08;12.25;;;4.05;;
70106;SDS011;57473;37.508;15.080;2023-05-23T13:50:35;8.77;;;2.95;;
70106;SDS011;57473;37.508;15.080;2023-05-23T13:53:02;9.40;;;3.83;;
70106;SDS011;57473;37.508;15.080;2023-05-23T13:55:33;9.60;;;3.53;;
70106;SDS011;57473;37.508;15.080;2023-05-23T13:58:01;7.40;;;3.20;;
70106;SDS011;57473;37.508;15.080;2023-05-23T14:00:29;6.20;;;3.55;;
70106;SDS011;57473;37.508;15.080;2023-05-23T14:02:56;5.82;;;3.20;;
70106;SDS011;57473;37.508;15.080;2023-05-23T14:05:24;10.50;;;3.58;;
70106;SDS011;57473;37.508;15.080;2023-05-23T14:07:52;11.88;;;4.30;;
70106;SDS011;57473;37.508;15.080;2023-05-23T14:10:19;10.02;;;3.70;;
70106;SDS011;57473;37.508;15.080;2023-05-23T14:12:47;7.07;;;3.45;;
70106;SDS011;57473;37.508;15.080;2023-05-23T14:15:15;7.43;;;3.13;;
70106;SDS011;57473;37.508;15.080;2023-05-23T14:17:43;13.15;;;3.83;;
70106;SDS011;57473;37.508;15.080;2023-05-23T14:20:10;11.88;;;6.78;;
70106;SDS011;57473;37.508;15.080;2023-05-23T14:22:38;12.00;;;4.63;;
70106;SDS011;57473;37.508;15.080;2023-05-23T14:25:08;16.92;;;5.88;;
70106;SDS011;57473;37.508;15.080;2023-05-23T14:27:36;14.15;;;6.30;;
70106;SDS011;57473;37.508;15.080;2023-05-23T14:30:03;49.13;;;23.00;;
70106;SDS011;57473;37.508;15.080;2023-05-23T14:32:31;13.15;;;6.32;;
70106;SDS011;57473;37.508;15.080;2023-05-23T14:35:04;8.93;;;5.22;;
70106;SDS011;57473;37.508;15.080;2023-05-23T14:37:33;12.02;;;4.93;;
70106;SDS011;57473;37.508;15.080;2023-05-23T14:40:05;10.23;;;4.45;;
70106;SDS011;57473;37.508;15.080;2023-05-23T14:42:33;11.20;;;5.18;;
70106;SDS011;57473;37.508;15.080;2023-05-23T14:45:01;7.03;;;3.13;;
70106;SDS011;57473;37.508;15.080;2023-05-23T14:47:28;8.88;;;3.92;;
70106;SDS011;57473;37.508;15.080;2023-05-23T14:49:56;8.20;;;3.65;;
70106;SDS011;57473;37.508;15.080;2023-05-23T14:52:23;7.85;;;3.72;;
70106;SDS011;57473;37.508;15.080;2023-05-23T14:54:51;10.75;;;4.13;;
70106;SDS011;57473;37.508;15.080;2023-05-23T14:57:18;8.65;;;4.07;;
70106;SDS011;57473;37.508;15.080;2023-05-23T14:59:46;12.57;;;5.75;;
70106;SDS011;57473;37.508;15.080;2023-05-23T15:02:14;6.47;;;3.72;;
70106;SDS011;57473;37.508;15.080;2023-05-23T15:04:41;18.38;;;5.70;;
70106;SDS011;57473;37.508;15.080;2023-05-23T15:07:09;8.25;;;3.47;;
70106;SDS011;57473;37.508;15.080;2023-05-23T15:09:36;8.30;;;3.20;;
70106;SDS011;57473;37.508;15.080;2023-05-23T15:12:04;9.98;;;3.72;;
70106;SDS011;57473;37.508;15.080;2023-05-23T15:14:33;9.30;;;3.70;;
70106;SDS011;57473;37.508;15.080;2023-05-23T15:17:01;16.10;;;5.05;;
70106;SDS011;57473;37.508;15.080;2023-05-23T15:19:36;6.80;;;3.83;;
70106;SDS011;57473;37.508;15.080;2023-05-23T15:22:05;8.07;;;3.25;;
70106;SDS011;57473;37.508;15.080;2023-05-23T15:24:33;7.00;;;3.60;;
70106;SDS011;57473;37.508;15.080;2023-05-23T15:27:04;7.97;;;3.80;;
70106;SDS011;57473;37.508;15.080;2023-05-23T15:29:46;9.40;;;4.53;;
70106;SDS011;57473;37.508;15.080;2023-05-23T15:32:14;7.63;;;4.38;;